Time;durP1;ratioP1;P1;durP2;ratioP2;P2;SDS_P1;SDS_P2;PMS_P1;PMS_P2;Temp;Humidity;BMP_temperature;BMP_pressure;BME280_temperature;BME280_humidity;BME280_pressure;Samples;Min_cycle;Max_cycle;Signal;HPM_P1;HPM_P2
2023/11/05 00:02:13;;;;;;;2.80;1.47;;;9.70;99.90;;;;;;5074057;28;20634;-70
2023/11/05 00:04:38;;;;;;;4.27;2.10;;;9.70;99.90;;;;;;5074268;28;20629;-70
2023/11/05 00:07:05;;;;;;;2.03;1.40;;;9.70;99.90;;;;;;5074212;28;20539;-70
2023/11/05 00:09:30;;;;;;;6.20;1.77;;;9.70;99.90;;;;;;5073950;28;20209;-70
2023/11/05 00:11:56;;;;;;;2.37;1.47;;;9.60;99.90;;;;;;5074003;28;20408;-70
2023/11/05 00:14:21;;;;;;;8.50;1.70;;;9.60;99.90;;;;;;5074016;28;20170;-70
2023/11/05 00:16:47;;;;;;;2.27;1.40;;;9.50;99.90;;;;;;5073917;28;20256;-70
2023/11/05 00:19:12;;;;;;;3.10;2.10;;;9.60;99.90;;;;;;5068979;28;20202;-70
2023/11/05 00:21:38;;;;;;;7.43;1.80;;;9.60;99.90;;;;;;5073701;28;20175;-71
2023/11/05 00:24:03;;;;;;;5.33;2.50;;;9.60;99.90;;;;;;5073557;28;20170;-70
2023/11/05 00:26:29;;;;;;;5.53;1.77;;;9.60;99.90;;;;;;5073856;28;20257;-70
2023/11/05 00:28:55;;;;;;;3.20;1.60;;;9.70;99.90;;;;;;5055536;28;20194;-70
2023/11/05 00:31:20;;;;;;;3.47;1.37;;;9.70;99.90;;;;;;5073732;28;20173;-70
2023/11/05 00:33:46;;;;;;;7.23;2.23;;;9.80;99.90;;;;;;5073464;28;20637;-70
2023/11/05 00:36:12;;;;;;;3.63;1.67;;;9.80;99.90;;;;;;5073528;28;20193;-70
2023/11/05 00:38:38;;;;;;;3.00;1.57;;;9.90;99.90;;;;;;5072512;28;20632;-70
2023/11/05 00:41:04;;;;;;;4.40;1.70;;;10.00;99.90;;;;;;5073540;28;20440;-70
2023/11/05 00:43:30;;;;;;;4.27;1.83;;;10.10;99.90;;;;;;5073218;28;20155;-70
2023/11/05 00:45:56;;;;;;;5.13;1.53;;;10.10;99.90;;;;;;5073415;28;20401;-70
2023/11/05 00:48:21;;;;;;;5.70;1.73;;;10.20;99.90;;;;;;5073243;28;20179;-70
2023/11/05 00:50:47;;;;;;;6.53;1.77;;;10.20;99.90;;;;;;5073330;28;20453;-70
2023/11/05 00:53:12;;;;;;;8.00;1.30;;;10.20;99.90;;;;;;5072868;28;20178;-70
2023/11/05 00:55:38;;;;;;;5.13;1.53;;;10.20;99.90;;;;;;5073226;28;20163;-70
2023/11/05 00:58:03;;;;;;;5.80;2.17;;;10.30;99.90;;;;;;5055080;28;20182;-70
2023/11/05 01:00:29;;;;;;;3.37;1.07;;;10.40;99.90;;;;;;5073053;28;20177;-70
2023/11/05 01:02:55;;;;;;;10.33;1.07;;;10.40;99.90;;;;;;5072819;28;20564;-70
2023/11/05 01:05:20;;;;;;;4.60;1.80;;;10.50;99.90;;;;;;5073030;28;20695;-70
2023/11/05 01:07:46;;;;;;;8.27;1.60;;;10.50;99.90;;;;;;5072933;28;20198;-70
2023/11/05 01:10:11;;;;;;;2.70;1.20;;;10.50;99.90;;;;;;5072930;28;20256;-70
2023/11/05 01:12:37;;;;;;;2.57;1.87;;;10.60;99.90;;;;;;5072612;28;20228;-70
2023/11/05 01:15:03;;;;;;;4.50;1.77;;;10.60;99.90;;;;;;5072682;28;20636;-70
2023/11/05 01:17:29;;;;;;;1.73;1.20;;;10.70;99.90;;;;;;5072679;28;20202;-70
2023/11/05 01:19:54;;;;;;;5.97;2.30;;;10.70;99.90;;;;;;5068102;28;20777;-70
2023/11/05 01:22:20;;;;;;;3.70;1.10;;;10.70;99.90;;;;;;5072384;28;20170;-70
2023/11/05 01:24:46;;;;;;;4.07;1.07;;;10.70;99.90;;;;;;5072451;28;20179;-69
2023/11/05 01:27:11;;;;;;;2.27;1.10;;;10.80;99.90;;;;;;5072405;28;20257;-70
2023/11/05 01:29:37;;;;;;;11.53;2.10;;;10.80;99.90;;;;;;5072411;28;20563;-70
2023/11/05 01:32:02;;;;;;;7.50;1.10;;;10.90;99.90;;;;;;5072273;28;20174;-70
2023/11/05 01:34:28;;;;;;;9.50;3.53;;;11.00;99.90;;;;;;5072513;28;20185;-70
2023/11/05 01:36:53;;;;;;;1.50;0.93;;;11.00;99.90;;;;;;5072220;28;20209;-70
2023/11/05 01:39:20;;;;;;;2.43;1.00;;;11.10;99.90;;;;;;5072270;28;20216;-69
2023/11/05 01:41:45;;;;;;;4.83;0.90;;;11.20;99.90;;;;;;5072299;28;20169;-70
2023/11/05 01:44:11;;;;;;;1.93;0.93;;;11.30;99.90;;;;;;5072110;28;20400;-70
2023/11/05 01:46:37;;;;;;;5.97;1.30;;;11.30;99.90;;;;;;5072267;28;20162;-70
2023/11/05 01:49:04;;;;;;;5.40;1.43;;;11.30;99.90;;;;;;5071638;28;20833;-70
2023/11/05 01:51:31;;;;;;;2.37;1.00;;;11.30;99.90;;;;;;5071762;28;20163;-71
2023/11/05 01:53:57;;;;;;;7.13;1.13;;;11.30;99.90;;;;;;5071897;28;20794;-70
2023/11/05 01:56:25;;;;;;;3.07;1.80;;;11.40;99.90;;;;;;5072058;28;20483;-69
2023/11/05 01:58:52;;;;;;;2.10;0.90;;;11.50;99.90;;;;;;5072048;28;20435;-70
2023/11/05 02:01:18;;;;;;;1.23;0.77;;;11.50;99.90;;;;;;5072081;28;20435;-70
2023/11/05 02:03:44;;;;;;;2.23;0.80;;;11.50;99.90;;;;;;5071708;28;20408;-70
2023/11/05 02:06:13;;;;;;;2.97;1.00;;;11.50;99.90;;;;;;5072015;28;20488;-69
2023/11/05 02:08:40;;;;;;;1.80;1.00;;;11.50;99.90;;;;;;5071859;28;20425;-69
2023/11/05 02:11:06;;;;;;;3.03;1.50;;;11.60;99.90;;;;;;5071908;28;20433;-70
2023/11/05 02:13:43;;;;;;;2.00;0.90;;;11.60;99.90;;;;;;5071748;28;20428;-70
2023/11/05 02:16:09;;;;;;;1.47;0.90;;;11.70;99.90;;;;;;5071843;28;20444;-70
2023/11/05 02:18:35;;;;;;;4.20;1.10;;;11.70;99.90;;;;;;5069275;28;20460;-70
2023/11/05 02:21:04;;;;;;;3.30;1.43;;;11.80;99.90;;;;;;5070119;28;20163;-70
2023/11/05 02:23:31;;;;;;;1.53;1.10;;;11.70;99.90;;;;;;5071382;28;20397;-70
2023/11/05 02:25:56;;;;;;;1.97;0.80;;;11.80;99.90;;;;;;5053747;28;20881;-70
2023/11/05 02:28:22;;;;;;;1.80;0.73;;;11.80;99.90;;;;;;5071677;28;20420;-70
2023/11/05 02:30:49;;;;;;;3.70;1.10;;;11.80;99.90;;;;;;5071831;28;20558;-70
2023/11/05 02:33:15;;;;;;;2.27;0.83;;;11.80;99.90;;;;;;5071486;28;20812;-70
2023/11/05 02:35:41;;;;;;;3.13;1.23;;;11.80;99.90;;;;;;5071441;28;20475;-70
2023/11/05 02:38:06;;;;;;;1.53;1.17;;;11.70;99.90;;;;;;5071408;28;20490;-70
2023/11/05 02:40:32;;;;;;;0.93;0.70;;;11.60;99.90;;;;;;5071666;28;20634;-70
2023/11/05 02:42:57;;;;;;;3.10;0.90;;;11.50;99.90;;;;;;5071475;28;20172;-70
2023/11/05 02:45:23;;;;;;;3.40;1.07;;;11.50;99.90;;;;;;5071636;28;20176;-70
2023/11/05 02:47:48;;;;;;;1.27;0.70;;;11.50;99.90;;;;;;5071555;28;20244;-70
2023/11/05 02:50:14;;;;;;;1.67;1.00;;;11.50;99.90;;;;;;5071479;28;20170;-70
2023/11/05 02:52:41;;;;;;;1.47;0.73;;;11.40;99.90;;;;;;5071247;28;20175;-70
2023/11/05 02:55:07;;;;;;;6.57;1.10;;;11.40;99.90;;;;;;5053518;28;20181;-70
2023/11/05 02:57:35;;;;;;;2.30;1.00;;;11.30;99.90;;;;;;5071347;28;20455;-70
2023/11/05 03:00:01;;;;;;;1.97;0.97;;;11.30;99.90;;;;;;5071495;28;20833;-70
2023/11/05 03:02:26;;;;;;;2.00;0.73;;;11.20;99.90;;;;;;5074340;28;20404;-70
2023/11/05 03:04:57;;;;;;;2.20;0.80;;;11.30;99.90;;;;;;5075201;28;20162;-70
2023/11/05 03:07:22;;;;;;;1.93;0.83;;;11.30;99.90;;;;;;5075237;28;20186;-70
2023/11/05 03:09:48;;;;;;;2.03;0.73;;;11.40;99.90;;;;;;5075373;28;20848;-70
2023/11/05 03:12:13;;;;;;;1.30;0.90;;;11.30;99.90;;;;;;5075069;28;20170;-69
2023/11/05 03:14:39;;;;;;;2.97;1.00;;;11.30;99.90;;;;;;5075099;28;20174;-70
2023/11/05 03:17:05;;;;;;;2.43;1.03;;;11.30;99.90;;;;;;5075039;28;20240;-70
2023/11/05 03:19:30;;;;;;;1.67;0.80;;;11.30;99.90;;;;;;5070824;28;20194;-70
2023/11/05 03:21:56;;;;;;;0.93;0.60;;;11.20;99.90;;;;;;5071175;28;20931;-70
2023/11/05 03:24:22;;;;;;;2.20;1.13;;;11.10;99.90;;;;;;5074877;28;20524;-70
2023/11/05 03:26:48;;;;;;;1.27;0.80;;;11.10;99.90;;;;;;5074892;28;20484;-70
2023/11/05 03:29:13;;;;;;;3.87;0.83;;;11.20;99.90;;;;;;5074790;28;20593;-70
2023/11/05 03:31:39;;;;;;;1.77;1.00;;;11.30;99.90;;;;;;5074816;28;20718;-70
2023/11/05 03:34:04;;;;;;;1.87;0.70;;;11.30;99.90;;;;;;5074639;28;20177;-70
2023/11/05 03:36:30;;;;;;;1.47;1.10;;;11.30;99.90;;;;;;5074651;28;20552;-70
2023/11/05 03:38:56;;;;;;;2.40;0.80;;;11.30;99.90;;;;;;5074628;28;20190;-70
2023/11/05 03:41:21;;;;;;;3.43;0.80;;;11.40;99.90;;;;;;5074695;28;20166;-70
2023/11/05 03:43:47;;;;;;;2.90;0.73;;;11.40;99.90;;;;;;5074521;28;20163;-70
2023/11/05 03:46:14;;;;;;;1.03;0.70;;;11.40;99.90;;;;;;5056675;28;20174;-70
2023/11/05 03:48:41;;;;;;;1.30;0.90;;;11.40;99.90;;;;;;5074447;28;20186;-70
2023/11/05 03:51:13;;;;;;;0.90;0.63;;;11.50;99.90;;;;;;5056448;28;20436;-70
2023/11/05 03:53:38;;;;;;;0.93;0.70;;;11.30;99.90;;;;;;5074209;28;20428;-70
2023/11/05 03:56:04;;;;;;;1.77;1.20;;;11.30;99.90;;;;;;5074377;28;20451;-70
2023/11/05 03:58:30;;;;;;;1.00;0.60;;;11.40;99.90;;;;;;5074090;28;20193;-70
2023/11/05 04:00:56;;;;;;;0.90;0.73;;;11.40;99.90;;;;;;5074354;28;20409;-70
2023/11/05 04:03:21;;;;;;;0.80;0.60;;;11.50;99.90;;;;;;5074042;28;20163;-70
2023/11/05 04:05:49;;;;;;;1.00;0.70;;;11.50;99.90;;;;;;5074201;28;20435;-70
2023/11/05 04:08:14;;;;;;;1.00;0.70;;;11.50;99.90;;;;;;5074065;28;20182;-70
2023/11/05 04:10:40;;;;;;;1.37;0.60;;;11.60;99.90;;;;;;5056136;28;20451;-70
2023/11/05 04:13:05;;;;;;;2.03;0.60;;;11.60;99.90;;;;;;5072859;28;20166;-70
2023/11/05 04:15:31;;;;;;;0.80;0.60;;;11.70;99.90;;;;;;5074047;28;20209;-70
2023/11/05 04:17:57;;;;;;;0.70;0.50;;;11.70;99.90;;;;;;5055747;28;20245;-70
2023/11/05 04:20:22;;;;;;;0.70;0.50;;;11.80;99.90;;;;;;5066528;28;20638;-69
2023/11/05 04:22:48;;;;;;;1.03;0.50;;;11.80;99.90;;;;;;5073582;28;20415;-70
2023/11/05 04:25:13;;;;;;;0.83;0.60;;;11.70;99.90;;;;;;5059069;28;20166;-70
2023/11/05 04:27:39;;;;;;;2.70;0.90;;;11.70;99.90;;;;;;5073800;28;20186;-70
2023/11/05 04:30:05;;;;;;;0.97;0.50;;;11.70;99.90;;;;;;5073817;28;20167;-70
2023/11/05 04:32:31;;;;;;;0.80;0.50;;;11.70;99.90;;;;;;5073504;28;20649;-70
2023/11/05 04:34:56;;;;;;;1.23;0.63;;;11.60;99.90;;;;;;5073594;28;20462;-70
2023/11/05 04:37:22;;;;;;;0.70;0.50;;;11.60;99.90;;;;;;5073469;28;20198;-70
2023/11/05 04:39:47;;;;;;;2.10;0.60;;;11.70;99.90;;;;;;5073550;28;20257;-69
2023/11/05 04:42:13;;;;;;;0.80;0.60;;;11.70;99.90;;;;;;5055356;28;20166;-70
2023/11/05 04:44:39;;;;;;;2.93;0.70;;;11.70;99.90;;;;;;5073507;28;20159;-70
2023/11/05 04:47:05;;;;;;;2.20;0.60;;;11.70;99.90;;;;;;5073442;28;20209;-70
2023/11/05 04:49:31;;;;;;;0.80;0.60;;;11.70;99.90;;;;;;5073143;28;20193;-70
2023/11/05 04:51:56;;;;;;;0.83;0.70;;;11.70;99.90;;;;;;5073400;28;20918;-69
2023/11/05 04:54:22;;;;;;;1.13;0.80;;;11.70;99.90;;;;;;5073078;28;20265;-70
2023/11/05 04:56:48;;;;;;;0.93;0.50;;;11.70;99.90;;;;;;5073204;28;20280;-70
2023/11/05 04:59:13;;;;;;;1.00;0.70;;;11.70;99.90;;;;;;5055127;28;20186;-70
2023/11/05 05:01:39;;;;;;;0.80;0.50;;;11.70;99.90;;;;;;5073195;28;20173;-70
2023/11/05 05:04:05;;;;;;;0.93;0.70;;;11.70;99.90;;;;;;5072811;28;20169;-70
2023/11/05 05:06:31;;;;;;;1.10;0.87;;;11.70;99.90;;;;;;5072993;28;20431;-70
2023/11/05 05:08:56;;;;;;;1.67;0.60;;;11.70;99.90;;;;;;5072876;28;20420;-70
2023/11/05 05:11:22;;;;;;;1.63;0.50;;;11.70;99.90;;;;;;5072992;28;20170;-70
2023/11/05 05:13:47;;;;;;;0.80;0.60;;;11.60;99.90;;;;;;5072749;28;20201;-70
2023/11/05 05:16:19;;;;;;;0.70;0.50;;;11.60;99.90;;;;;;5072843;28;20193;-70
2023/11/05 05:18:45;;;;;;;2.00;0.60;;;11.70;99.90;;;;;;5070584;28;20190;-70
2023/11/05 05:21:11;;;;;;;0.70;0.60;;;11.70;99.90;;;;;;5067323;28;20428;-70
2023/11/05 05:23:37;;;;;;;0.70;0.50;;;11.80;99.90;;;;;;5071700;28;20929;-70
2023/11/05 05:26:03;;;;;;;0.70;0.50;;;11.80;99.90;;;;;;5072694;28;20159;-70
2023/11/05 05:28:29;;;;;;;4.67;0.60;;;11.80;99.90;;;;;;5072449;28;20548;-70
2023/11/05 05:30:54;;;;;;;0.90;0.67;;;11.80;99.90;;;;;;5072623;28;20401;-70
2023/11/05 05:33:20;;;;;;;0.70;0.50;;;11.80;99.90;;;;;;5072141;28;20170;-70
2023/11/05 05:35:46;;;;;;;0.80;0.60;;;11.70;99.90;;;;;;5072497;28;20541;-70
2023/11/05 05:38:12;;;;;;;0.70;0.50;;;11.80;99.90;;;;;;5072180;28;20205;-70
2023/11/05 05:40:37;;;;;;;0.80;0.60;;;11.80;99.90;;;;;;5072373;28;20400;-70
2023/11/05 05:43:03;;;;;;;0.80;0.70;;;11.70;99.90;;;;;;5072228;28;20189;-70
2023/11/05 05:45:28;;;;;;;1.23;0.80;;;11.70;99.90;;;;;;5072376;28;20664;-69
2023/11/05 05:47:54;;;;;;;0.90;0.50;;;11.70;99.90;;;;;;5068646;28;20205;-70
2023/11/05 05:50:19;;;;;;;1.00;0.70;;;11.60;99.90;;;;;;5054089;28;20170;-70
2023/11/05 05:52:45;;;;;;;0.90;0.60;;;11.60;99.90;;;;;;5071988;28;20176;-70
2023/11/05 05:55:14;;;;;;;1.13;0.60;;;11.50;99.90;;;;;;5072288;28;20174;-70
2023/11/05 05:57:40;;;;;;;0.80;0.60;;;11.50;99.90;;;;;;5071970;28;20199;-70
2023/11/05 06:00:09;;;;;;;0.80;0.70;;;11.50;99.90;;;;;;5071945;28;20404;-70
2023/11/05 06:02:35;;;;;;;0.70;0.50;;;11.50;99.90;;;;;;5071710;28;20515;-70
2023/11/05 06:05:01;;;;;;;0.90;0.50;;;11.40;99.90;;;;;;5072018;28;20409;-70
2023/11/05 06:07:31;;;;;;;1.93;0.80;;;11.50;99.90;;;;;;5071965;28;20408;-70
2023/11/05 06:09:57;;;;;;;1.20;0.70;;;11.40;99.90;;;;;;5071875;28;20503;-70
2023/11/05 06:12:23;;;;;;;1.57;0.60;;;11.50;99.90;;;;;;5071696;28;20412;-70
2023/11/05 06:14:49;;;;;;;0.80;0.60;;;11.50;99.90;;;;;;5071953;28;20503;-70
2023/11/05 06:17:14;;;;;;;0.70;0.50;;;11.60;99.90;;;;;;5071661;28;20198;-70
2023/11/05 06:19:40;;;;;;;1.37;0.60;;;11.60;99.90;;;;;;5067614;28;20692;-70
2023/11/05 06:22:05;;;;;;;1.87;0.70;;;11.50;99.90;;;;;;5064296;28;20183;-69
2023/11/05 06:24:31;;;;;;;1.37;0.67;;;11.60;99.90;;;;;;5071016;28;20174;-69
2023/11/05 06:26:56;;;;;;;1.30;0.83;;;11.50;99.90;;;;;;5071793;28;20660;-69
2023/11/05 06:29:22;;;;;;;0.90;0.60;;;11.50;99.90;;;;;;5071659;28;20233;-69
2023/11/05 06:31:47;;;;;;;1.00;0.57;;;11.40;99.90;;;;;;5071700;28;20280;-69
2023/11/05 06:34:12;;;;;;;1.67;0.70;;;11.40;99.90;;;;;;5071609;28;20173;-69
2023/11/05 06:36:57;;;;;;;1.57;0.50;;;11.50;99.90;;;;;;5073895;28;20629;-69
2023/11/05 06:39:23;;;;;;;0.80;0.60;;;11.40;99.90;;;;;;5075776;28;20556;-68
2023/11/05 06:41:48;;;;;;;1.03;0.60;;;11.30;99.90;;;;;;5075730;28;20397;-69
2023/11/05 06:44:15;;;;;;;0.90;0.63;;;11.40;99.90;;;;;;5068127;28;20232;-69
2023/11/05 06:46:40;;;;;;;2.17;0.70;;;11.30;99.90;;;;;;5075455;28;20188;-69
2023/11/05 06:49:06;;;;;;;1.00;0.60;;;11.30;99.90;;;;;;5060287;28;21042;-69
2023/11/05 06:51:31;;;;;;;0.80;0.50;;;11.20;99.90;;;;;;5075608;28;20176;-69
2023/11/05 06:53:57;;;;;;;0.70;0.50;;;11.10;99.90;;;;;;5075308;28;20200;-69
2023/11/05 06:56:22;;;;;;;0.93;0.57;;;11.00;99.90;;;;;;5075231;28;20285;-69
2023/11/05 06:58:48;;;;;;;2.33;0.60;;;11.10;99.90;;;;;;5075213;28;20196;-69
2023/11/05 07:01:14;;;;;;;1.40;0.67;;;11.10;99.90;;;;;;5075501;28;20523;-69
2023/11/05 07:03:39;;;;;;;0.70;0.50;;;11.00;99.90;;;;;;5075136;28;20169;-69
2023/11/05 07:06:05;;;;;;;0.80;0.60;;;10.90;99.90;;;;;;5075414;28;20427;-70
2023/11/05 07:08:31;;;;;;;1.30;0.60;;;10.90;99.90;;;;;;5075120;28;20201;-70
2023/11/05 07:10:57;;;;;;;0.90;0.60;;;11.00;99.90;;;;;;5075274;28;20396;-69
2023/11/05 07:13:22;;;;;;;0.80;0.60;;;11.00;99.90;;;;;;5057126;28;20185;-69
2023/11/05 07:15:48;;;;;;;0.73;0.57;;;11.00;99.90;;;;;;5075218;28;20775;-70
2023/11/05 07:18:14;;;;;;;2.80;0.70;;;11.10;99.90;;;;;;5074918;28;20202;-69
2023/11/05 07:20:39;;;;;;;2.67;0.80;;;11.10;99.90;;;;;;5055751;28;20848;-69
2023/11/05 07:23:05;;;;;;;0.90;0.60;;;11.10;99.90;;;;;;5074558;28;20209;-69
2023/11/05 07:25:31;;;;;;;1.83;0.63;;;11.00;99.90;;;;;;5073120;28;20170;-70
2023/11/05 07:27:58;;;;;;;0.80;0.60;;;11.10;99.90;;;;;;5074730;28;20704;-70
2023/11/05 07:30:23;;;;;;;0.70;0.57;;;11.10;99.90;;;;;;5074789;28;20185;-69
2023/11/05 07:32:50;;;;;;;0.93;0.60;;;11.00;99.90;;;;;;5074666;28;20530;-70
2023/11/05 07:35:16;;;;;;;0.80;0.60;;;11.10;99.90;;;;;;5074808;28;20170;-70
2023/11/05 07:37:42;;;;;;;1.10;0.70;;;11.00;99.90;;;;;;5074584;28;20452;-69
2023/11/05 07:40:11;;;;;;;0.80;0.60;;;11.00;99.90;;;;;;5074664;28;20161;-69
2023/11/05 07:42:36;;;;;;;1.30;0.77;;;11.10;99.90;;;;;;5072290;28;20473;-69
2023/11/05 07:45:03;;;;;;;1.73;0.80;;;11.10;99.90;;;;;;5068833;28;20447;-69
2023/11/05 07:47:28;;;;;;;1.13;0.60;;;11.10;99.90;;;;;;5074139;28;20475;-69
2023/11/05 07:49:54;;;;;;;0.80;0.63;;;11.10;99.90;;;;;;5073367;28;20495;-69
2023/11/05 07:52:19;;;;;;;2.23;0.60;;;11.20;99.90;;;;;;5065679;28;20178;-70
2023/11/05 07:54:45;;;;;;;1.10;0.60;;;11.10;99.90;;;;;;5074160;28;20194;-70
2023/11/05 07:57:11;;;;;;;5.40;0.83;;;11.10;99.90;;;;;;5074191;28;20194;-70
2023/11/05 07:59:36;;;;;;;1.03;0.80;;;11.20;99.90;;;;;;5074270;28;20170;-70
2023/11/05 08:02:02;;;;;;;1.50;0.60;;;11.30;99.90;;;;;;5074197;28;20158;-70
2023/11/05 08:04:27;;;;;;;0.80;0.57;;;11.50;99.90;;;;;;5074114;28;20170;-69
2023/11/05 08:06:54;;;;;;;0.80;0.60;;;11.60;99.90;;;;;;5074247;28;20292;-69
2023/11/05 08:09:21;;;;;;;2.20;1.70;;;11.80;99.90;;;;;;5074045;28;20193;-69
2023/11/05 08:11:49;;;;;;;2.70;2.23;;;12.10;99.90;;;;;;5074111;28;20462;-69
2023/11/05 08:14:14;;;;;;;1.57;1.00;;;12.20;99.90;;;;;;5073931;28;20927;-69
2023/11/05 08:16:40;;;;;;;1.17;0.90;;;12.40;99.90;;;;;;5073998;28;20469;-68
2023/11/05 08:19:05;;;;;;;1.80;0.80;;;12.60;99.90;;;;;;5070161;28;20198;-70
2023/11/05 08:21:31;;;;;;;0.90;0.60;;;12.80;99.90;;;;;;5069179;28;20183;-70
2023/11/05 08:23:57;;;;;;;1.00;0.70;;;12.90;99.90;;;;;;5073573;28;20216;-70
2023/11/05 08:26:24;;;;;;;1.07;0.70;;;13.00;99.90;;;;;;5073860;28;20228;-70
2023/11/05 08:28:50;;;;;;;1.47;0.70;;;13.00;99.90;;;;;;5073636;28;20429;-71
2023/11/05 08:31:15;;;;;;;1.20;0.80;;;13.10;99.90;;;;;;5073710;28;20454;-70
2023/11/05 08:33:41;;;;;;;1.53;0.70;;;13.10;99.90;;;;;;5073487;28;21000;-70
2023/11/05 08:36:07;;;;;;;1.00;0.70;;;13.20;99.90;;;;;;5074034;28;20216;-70
2023/11/05 08:38:33;;;;;;;1.07;0.80;;;13.50;99.90;;;;;;5073433;28;20267;-70
2023/11/05 08:40:59;;;;;;;0.90;0.60;;;13.60;99.90;;;;;;5073503;28;20404;-70
2023/11/05 08:43:24;;;;;;;0.90;0.70;;;14.10;99.90;;;;;;5064686;28;20171;-70
2023/11/05 08:45:50;;;;;;;1.00;0.60;;;14.70;99.90;;;;;;5073150;28;20450;-70
2023/11/05 08:48:16;;;;;;;0.80;0.60;;;15.30;99.90;;;;;;5073318;28;20182;-69
2023/11/05 08:50:42;;;;;;;1.00;0.63;;;16.00;99.90;;;;;;5073368;28;20166;-70
2023/11/05 08:53:07;;;;;;;1.07;0.60;;;16.10;99.90;;;;;;5072975;28;20435;-70
2023/11/05 08:55:37;;;;;;;1.17;0.80;;;16.00;99.90;;;;;;5073565;28;20174;-70
2023/11/05 08:58:03;;;;;;;1.37;0.70;;;15.90;99.90;;;;;;5073068;28;20233;-70
2023/11/05 09:00:32;;;;;;;0.80;0.60;;;15.60;99.90;;;;;;5072783;28;20407;-70
2023/11/05 09:02:57;;;;;;;0.90;0.60;;;15.60;99.90;;;;;;5072928;28;20416;-70
2023/11/05 09:05:23;;;;;;;1.10;0.80;;;14.90;99.90;;;;;;5073101;28;20404;-71
2023/11/05 09:07:52;;;;;;;1.30;0.80;;;14.60;99.90;;;;;;5072880;28;20264;-69
2023/11/05 09:10:20;;;;;;;1.10;0.90;;;14.30;99.90;;;;;;5072959;28;20194;-70
2023/11/05 09:12:46;;;;;;;1.27;0.80;;;13.90;99.90;;;;;;5072671;28;20590;-70
2023/11/05 09:15:12;;;;;;;1.30;0.60;;;13.60;99.90;;;;;;5073028;28;20933;-70
2023/11/05 09:17:37;;;;;;;1.43;0.80;;;13.30;99.90;;;;;;5072692;28;20456;-70
2023/11/05 09:20:03;;;;;;;1.00;0.70;;;13.00;99.90;;;;;;5072774;28;20163;-70
2023/11/05 09:22:29;;;;;;;10.10;4.60;;;12.60;99.90;;;;;;5072436;28;20163;-70
2023/11/05 09:25:01;;;;;;;1.30;0.90;;;12.40;99.90;;;;;;5072655;28;20578;-70
2023/11/05 09:27:29;;;;;;;1.37;0.70;;;12.30;99.90;;;;;;5072596;28;20575;-69
2023/11/05 09:29:55;;;;;;;2.07;0.90;;;12.20;99.90;;;;;;5072527;28;20401;-70
2023/11/05 09:32:21;;;;;;;1.10;0.73;;;12.20;99.90;;;;;;5072357;28;20416;-70
2023/11/05 09:34:47;;;;;;;3.40;0.80;;;12.40;99.90;;;;;;5072463;28;20530;-70
2023/11/05 09:37:12;;;;;;;1.20;0.80;;;12.40;99.90;;;;;;5072337;28;20448;-69
2023/11/05 09:39:38;;;;;;;0.90;0.80;;;12.40;99.90;;;;;;5072316;28;20170;-70
2023/11/05 09:42:04;;;;;;;1.40;0.90;;;12.50;99.90;;;;;;5072060;28;20641;-69
2023/11/05 09:44:29;;;;;;;0.80;0.60;;;12.60;99.90;;;;;;5072425;28;20167;-70
2023/11/05 09:46:58;;;;;;;0.90;0.60;;;12.50;99.90;;;;;;5072223;28;20412;-69
2023/11/05 09:49:24;;;;;;;2.10;0.70;;;12.50;99.90;;;;;;5072050;28;20696;-69
2023/11/05 09:51:50;;;;;;;0.90;0.70;;;12.40;99.90;;;;;;5072172;28;20416;-69
2023/11/05 09:54:16;;;;;;;1.00;0.70;;;12.20;99.90;;;;;;5053927;28;20186;-69
2023/11/05 09:56:42;;;;;;;1.30;0.97;;;12.20;99.90;;;;;;5072047;28;20490;-70
2023/11/05 09:59:07;;;;;;;1.40;1.00;;;12.10;99.90;;;;;;5072126;28;20419;-69
2023/11/05 10:01:36;;;;;;;2.27;1.00;;;12.10;99.90;;;;;;5072125;28;20162;-69
2023/11/05 10:04:06;;;;;;;1.00;0.70;;;12.10;99.90;;;;;;5071801;28;20238;-69
2023/11/05 10:06:33;;;;;;;4.47;1.17;;;12.00;99.90;;;;;;5072075;28;20404;-69
2023/11/05 10:08:59;;;;;;;2.03;1.00;;;12.10;99.90;;;;;;5071853;28;20428;-69
2023/11/05 10:11:26;;;;;;;1.43;0.93;;;12.10;99.90;;;;;;5053237;28;20404;-70
2023/11/05 10:13:52;;;;;;;1.43;1.33;;;12.20;99.90;;;;;;5071728;28;20412;-69
2023/11/05 10:16:18;;;;;;;1.30;1.20;;;12.30;99.90;;;;;;5071843;28;20460;-69
2023/11/05 10:18:44;;;;;;;1.10;0.90;;;12.20;99.90;;;;;;5071800;28;20587;-69
2023/11/05 10:21:10;;;;;;;1.20;1.10;;;12.30;99.90;;;;;;5071898;28;20741;-69
2023/11/05 10:23:50;;;;;;;1.07;0.90;;;12.30;99.90;;;;;;5071660;28;20397;-69
2023/11/05 10:26:27;;;;;;;1.60;1.07;;;12.30;99.90;;;;;;5071830;28;21035;-69
2023/11/05 10:28:53;;;;;;;1.30;1.00;;;12.40;99.90;;;;;;5071612;28;20463;-69
2023/11/05 10:31:21;;;;;;;3.07;1.40;;;12.50;99.90;;;;;;5071772;28;20507;-69
2023/11/05 10:33:49;;;;;;;1.10;1.00;;;12.80;99.90;;;;;;5071562;28;20400;-70
2023/11/05 10:36:15;;;;;;;0.93;0.77;;;13.10;99.90;;;;;;5071664;28;20397;-69
2023/11/05 10:38:41;;;;;;;1.73;0.80;;;13.30;99.90;;;;;;5071597;28;20432;-69
2023/11/05 10:41:10;;;;;;;6.80;3.90;;;13.60;99.90;;;;;;5071660;28;20170;-70
2023/11/05 10:43:36;;;;;;;2.60;1.63;;;13.60;99.90;;;;;;5071450;28;20774;-70
2023/11/05 10:46:03;;;;;;;1.43;0.80;;;13.60;99.90;;;;;;5071702;28;20395;-69
2023/11/05 10:48:29;;;;;;;1.00;0.73;;;13.60;99.90;;;;;;5071574;28;20220;-69
2023/11/05 10:50:56;;;;;;;2.73;0.70;;;13.50;99.90;;;;;;5071617;28;20431;-70
2023/11/05 10:53:22;;;;;;;2.37;1.10;;;13.50;99.90;;;;;;5071291;28;20178;-69
2023/11/05 10:55:49;;;;;;;1.20;1.10;;;13.50;99.90;;;;;;5071589;28;20454;-69
2023/11/05 10:58:21;;;;;;;0.80;0.60;;;13.30;99.90;;;;;;5071317;28;20980;-70
2023/11/05 11:01:03;;;;;;;0.97;0.87;;;13.30;99.90;;;;;;5071550;28;20404;-69
2023/11/05 11:03:30;;;;;;;2.30;1.00;;;13.20;99.90;;;;;;5071392;28;20396;-69
2023/11/05 11:05:58;;;;;;;1.90;1.20;;;13.10;99.90;;;;;;5071511;28;20393;-70
2023/11/05 11:08:29;;;;;;;3.63;1.37;;;13.10;99.90;;;;;;5071313;28;20426;-70
2023/11/05 11:11:15;;;;;;;1.10;0.90;;;13.00;99.90;;;;;;5071356;28;20405;-69
2023/11/05 11:13:49;;;;;;;1.47;1.10;;;12.90;99.90;;;;;;5070946;28;20473;-70
2023/11/05 11:16:25;;;;;;;1.53;0.80;;;12.70;99.90;;;;;;5071272;28;20427;-69
2023/11/05 11:18:52;;;;;;;1.10;0.90;;;12.60;99.90;;;;;;5071113;28;20416;-69
2023/11/05 11:21:19;;;;;;;1.43;1.10;;;12.40;99.90;;;;;;5071276;28;20744;-70
2023/11/05 11:23:44;;;;;;;2.80;1.63;;;12.30;99.90;;;;;;5074595;28;20393;-69
2023/11/05 11:26:24;;;;;;;1.60;1.50;;;12.30;99.90;;;;;;5075102;28;20392;-70
2023/11/05 11:28:58;;;;;;;6.17;1.80;;;12.30;99.90;;;;;;5074841;28;20178;-70
2023/11/05 11:31:25;;;;;;;2.20;1.60;;;12.30;99.90;;;;;;5074823;28;20399;-70
2023/11/05 11:33:52;;;;;;;8.00;2.17;;;12.30;99.90;;;;;;5056681;28;20400;-69
2023/11/05 11:36:18;;;;;;;1.90;1.33;;;12.30;99.90;;;;;;5074711;28;20393;-69
2023/11/05 11:38:43;;;;;;;4.00;1.70;;;12.40;99.90;;;;;;5074593;28;20498;-69
2023/11/05 11:41:09;;;;;;;4.77;2.40;;;12.30;99.90;;;;;;5074792;28;20933;-69
2023/11/05 11:43:36;;;;;;;1.50;1.40;;;12.10;99.90;;;;;;5074463;28;20512;-69
2023/11/05 11:46:03;;;;;;;2.23;1.70;;;12.00;99.90;;;;;;5074539;28;20159;-69
2023/11/05 11:48:28;;;;;;;2.80;1.50;;;12.10;99.90;;;;;;5074428;28;20443;-69
2023/11/05 11:51:03;;;;;;;5.10;1.83;;;12.10;99.90;;;;;;5074571;28;20808;-69
2023/11/05 11:53:30;;;;;;;2.60;2.13;;;12.00;99.90;;;;;;5074132;28;20551;-69
2023/11/05 11:55:57;;;;;;;3.30;1.50;;;12.00;99.90;;;;;;5056409;28;20412;-69
2023/11/05 11:58:24;;;;;;;5.50;1.60;;;12.00;99.90;;;;;;5074215;28;20546;-69
2023/11/05 12:00:52;;;;;;;1.67;1.30;;;12.00;99.90;;;;;;5074364;28;20393;-69
2023/11/05 12:03:18;;;;;;;1.97;1.43;;;11.90;99.90;;;;;;5074112;28;20938;-69
2023/11/05 12:05:44;;;;;;;3.73;1.90;;;11.90;99.90;;;;;;5074262;28;20401;-70
2023/11/05 12:08:11;;;;;;;1.87;1.73;;;12.00;99.90;;;;;;5073994;28;20428;-69
2023/11/05 12:10:37;;;;;;;2.47;2.27;;;12.00;99.90;;;;;;5056114;28;20166;-70
2023/11/05 12:13:03;;;;;;;4.63;1.93;;;12.10;99.90;;;;;;5073817;28;20415;-70
2023/11/05 12:15:30;;;;;;;4.33;2.20;;;12.20;99.90;;;;;;5074056;28;20247;-70
2023/11/05 12:17:56;;;;;;;2.63;1.97;;;12.30;99.90;;;;;;5073775;28;20198;-70
2023/11/05 12:20:21;;;;;;;3.00;2.00;;;12.40;99.90;;;;;;5073946;28;20396;-70
2023/11/05 12:22:47;;;;;;;4.20;2.10;;;12.60;99.90;;;;;;5073639;28;20400;-70
2023/11/05 12:25:13;;;;;;;2.90;2.17;;;12.70;99.90;;;;;;5073856;28;20166;-69
2023/11/05 12:27:46;;;;;;;9.20;2.87;;;12.90;99.90;;;;;;5067612;28;20315;-69
2023/11/05 12:30:18;;;;;;;6.90;1.90;;;13.10;99.90;;;;;;5065528;28;20903;-70
2023/11/05 12:32:44;;;;;;;3.30;1.80;;;14.60;99.90;;;;;;5073387;28;20408;-70
2023/11/05 12:35:10;;;;;;;3.53;1.60;;;16.80;99.90;;;;;;5072932;28;20411;-70
2023/11/05 12:37:36;;;;;;;2.73;1.80;;;17.90;99.90;;;;;;5073446;28;20202;-70
2023/11/05 12:40:04;;;;;;;4.93;2.17;;;18.70;99.90;;;;;;5073554;28;20495;-70
2023/11/05 12:42:33;;;;;;;3.70;2.30;;;19.00;99.90;;;;;;5073383;28;20216;-70
2023/11/05 12:44:59;;;;;;;3.20;1.57;;;19.30;99.90;;;;;;5073493;28;20404;-70